Flight Track Log - Related Links

Times and Time Zones

All times are in EST time to prevent confusion due to time zone crossing. See the TCF3442 flight status page for this flight to view local times or setup timezone preferences in your user account.

Time Position Orientation Groundspeed Altitude Reporting Facility
EST Latitude Longitude Course Direction KTS MPH feet Rate Location/Type
Tue 11:30:50 PM 29.9617 -95.3436 334° Northwest 152 175 900  Level Houston Center
Tue 11:32:03 PM 29.9719 -95.3858 286° West 228 262 3,000 1,407 Climbing Houston Center
Tue 11:32:11 PM 29.9694 -95.3836 142° Southeast 236 272 2,800 2,000 Descending Houston Center
Tue 11:33:12 PM 30.0394 -95.3897 356° North 247 284 5,300 2,852 Climbing Houston Center
Tue 11:34:00 PM 30.3744 -95.5635 334° Northwest  Level FlightAware Approximate
Tue 11:34:13 PM 30.1197 -95.3947 357° North 283 326 8,600  Level Houston Center
Tue 11:35:00 PM 30.4734 -95.6185 334° Northwest  Level FlightAware Approximate
Tue 11:35:14 PM 30.2128 -95.4356 339° North 299 344 11,900  Level Houston Center
Tue 11:36:14 PM 30.2903 -95.4878 330° Northwest 316 364 14,400 2,231 Climbing Houston Center
Tue 11:37:15 PM 30.3767 -95.5444 330° Northwest 348 400 16,400 2,164 Climbing Houston Center
Tue 11:38:16 PM 30.4656 -95.6044 330° Northwest 366 421 18,800 2,213 Climbing Houston Center
Tue 11:39:17 PM 30.5550 -95.6622 331° Northwest 368 423 20,900 1,983 Climbing Houston Center
Tue 11:40:17 PM 30.6497 -95.7136 335° Northwest 372 428 22,800 1,785 Climbing Houston Center
Tue 11:41:18 PM 30.7461 -95.7642 336° Northwest 388 447 24,500 1,574 Climbing Houston Center
Tue 11:42:19 PM 30.8467 -95.8175 336° Northwest 392 451 26,000 1,488 Climbing Houston Center
Tue 11:43:19 PM 30.9481 -95.8719 335° Northwest 396 456 27,500 1,488 Climbing Houston Center
Tue 11:44:20 PM 31.0503 -95.9272 335° Northwest 400 460 29,000 1,623 Climbing Houston Center
Tue 11:45:21 PM 31.1506 -95.9733 339° North 388 447 30,800 1,289 Climbing Houston Center
Tue 11:46:21 PM 31.2581 -95.9911 352° North 385 443 31,600 843 Climbing Houston Center
Tue 11:47:22 PM 31.3694 -96.0017 355° North 392 451 32,500 885 Climbing Houston Center
Tue 11:48:23 PM 31.4803 -96.0139 355° North 396 456 33,400 843 Climbing Houston Center
Tue 11:49:23 PM 31.5947 -96.0256 355° North 403 464 34,200 814 Climbing Houston Center
Tue 11:50:21 PM 31.7147 -96.0381 355° North 405 466 35,000 403 Climbing Fort Worth Center
Tue 11:51:22 PM 31.8300 -96.0497 355° North 409 471 35,000  Level Fort Worth Center
Tue 11:52:23 PM 31.9472 -96.0611 355° North 414 476 35,000  Level Fort Worth Center
Tue 11:53:24 PM 32.0703 -96.0756 354° North 432 497 35,000  Level Fort Worth Center
Tue 11:54:25 PM 32.1956 -96.0872 355° North 446 513 35,000  Level Fort Worth Center
Tue 11:55:25 PM 32.3183 -96.1011 355° North 446 513 35,000  Level Fort Worth Center
Tue 11:56:26 PM 32.4414 -96.1142 355° North 445 512 35,000  Level Fort Worth Center
Tue 11:57:27 PM 32.5644 -96.1281 355° North 446 513 35,000  Level Fort Worth Center
Tue 11:58:28 PM 32.6847 -96.1408 355° North 440 506 35,000  Level Fort Worth Center
Tue 11:59:29 PM 32.8017 -96.1547 354° North 428 493 35,000  Level Fort Worth Center
Wed 12:00:29 AM 32.9433 -96.1694 355° North 428 493 35,000  Level Fort Worth Center
Wed 12:01:30 AM 33.0569 -96.1828 354° North 413 475 35,000  Level Fort Worth Center
Wed 12:02:31 AM 33.1664 -96.1942 355° North 402 463 35,000  Level Fort Worth Center
Wed 12:03:32 AM 33.2767 -96.2056 355° North 400 460 35,000  Level Fort Worth Center
Wed 12:04:33 AM 33.3903 -96.2089 359° North 404 465 35,000  Level Fort Worth Center
Wed 12:05:33 AM 33.5064 -96.2089 360° North 414 476 35,000  Level Fort Worth Center
Wed 12:06:34 AM 33.6225 -96.2100 360° North 415 478 35,000  Level Fort Worth Center
Wed 12:07:35 AM 33.7378 -96.2094 360° North 415 478 35,000  Level Fort Worth Center
Wed 12:08:36 AM 33.8533 -96.2092 360° North 415 478 35,000  Level Fort Worth Center
Wed 12:09:36 AM 33.9678 -96.2092 360° North 415 478 35,000  Level Fort Worth Center
Wed 12:10:37 AM 34.0833 -96.2103 360° North 415 478 35,000  Level Fort Worth Center
Wed 12:11:38 AM 34.2047 -96.2094 360° North 415 478 35,000  Level Fort Worth Center
Wed 12:12:38 AM 34.3203 -96.2075 North 417 480 35,000  Level Fort Worth Center
Wed 12:13:39 AM 34.4364 -96.2083 360° North 417 480 35,000  Level Fort Worth Center
Wed 12:14:40 AM 34.5522 -96.2064 North 418 481 35,000  Level Fort Worth Center
Wed 12:15:40 AM 34.6669 -96.2078 359° North 416 479 35,000  Level Fort Worth Center
Wed 12:16:41 AM 34.7839 -96.2083 360° North 418 481 35,000  Level Fort Worth Center
Wed 12:17:42 AM 34.9289 -96.2086 360° North 434 499 35,000  Level Fort Worth Center
Wed 12:18:42 AM 35.0503 -96.2069 North 436 502 35,000  Level Fort Worth Center
Wed 12:19:43 AM 35.1700 -96.2094 359° North 436 502 35,000  Level Fort Worth Center
Wed 12:20:44 AM 35.2903 -96.2086 360° North 435 501 35,000  Level Fort Worth Center
Wed 12:21:44 AM 35.4108 -96.2089 360° North 435 501 35,000  Level Fort Worth Center
Wed 12:22:45 AM 35.5308 -96.2083 360° North 433 498 35,000  Level Fort Worth Center
Wed 12:23:46 AM 35.6483 -96.2092 360° North 428 493 35,000  Level Fort Worth Center
Wed 12:24:46 AM 35.7675 -96.2092 360° North 427 491 35,000  Level Fort Worth Center
Wed 12:25:47 AM 35.8864 -96.2086 360° North 428 493 35,000 -298 Level Fort Worth Center
Wed 12:26:47 AM 36.0111 -96.2097 360° North 433 498 34,400 -496 Descending Fort Worth Center
Wed 12:27:48 AM 36.1317 -96.2092 360° North 433 498 34,000 -198 Descending Fort Worth Center
Wed 12:28:48 AM 36.2536 -96.2092 360° North 432 497 34,000  Level Fort Worth Center
Wed 12:29:59 AM 36.4006 -96.2075 North 432 497 34,000  Level Kansas City Center
Wed 12:30:59 AM 36.5236 -96.2078 360° North 433 498 34,000  Level Kansas City Center
Wed 12:32:00 AM 36.6456 -96.2072 360° North 433 498 34,000  Level Kansas City Center
Wed 12:33:00 AM 36.7686 -96.2069 360° North 434 499 34,000  Level Kansas City Center
Wed 12:34:01 AM 36.8917 -96.2075 360° North 435 501 34,000  Level Kansas City Center
Wed 12:35:01 AM 37.0147 -96.2092 359° North 436 502 34,000  Level Kansas City Center
Wed 12:36:02 AM 37.1364 -96.2086 360° North 436 502 34,000  Level Kansas City Center
Wed 12:37:02 AM 37.2589 -96.2092 360° North 436 502 34,000  Level Kansas City Center
Wed 12:38:03 AM 37.3808 -96.2081 360° North 436 502 34,000  Level Kansas City Center
Wed 12:39:04 AM 37.5042 -96.2081 360° North 437 503 34,000  Level Kansas City Center
Wed 12:40:04 AM 37.6283 -96.2072 360° North 439 505 34,000  Level Kansas City Center
Wed 12:41:05 AM 37.7356 -96.2089 359° North 448 516 34,000  Level Kansas City Center
Wed 12:42:05 AM 37.8825 -96.2081 360° North 446 513 34,000  Level Kansas City Center
Wed 12:43:06 AM 38.0053 -96.2081 360° North 445 512 34,000  Level Kansas City Center
Wed 12:44:06 AM 38.1286 -96.2078 360° North 445 512 34,000  Level Kansas City Center
Wed 12:45:07 AM 38.2425 -96.2075 360° North 443 510 34,000  Level Kansas City Center
Wed 12:46:07 AM 38.3803 -96.2081 360° North 442 509 34,000  Level Kansas City Center
Wed 12:47:08 AM 38.4989 -96.2083 360° North 443 510 34,000  Level Kansas City Center
Wed 12:48:08 AM 38.6172 -96.2075 360° North 443 510 34,000  Level Kansas City Center
Wed 12:49:09 AM 38.7367 -96.2078 360° North 443 510 34,000  Level Kansas City Center
Wed 12:50:09 AM 38.8753 -96.2072 360° North 444 511 34,000  Level Kansas City Center
Wed 12:51:10 AM 38.9975 -96.2058 North 442 509 34,000  Level Kansas City Center
Wed 12:52:10 AM 39.1119 -96.2067 360° North 443 510 34,000 -198 Level Kansas City Center
Wed 12:53:11 AM 39.2514 -96.2067 360° North 445 512 33,600 -843 Descending Kansas City Center
Wed 12:54:11 AM 39.3725 -96.2058 360° North 447 514 32,300 -1,339 Descending Kansas City Center
Wed 12:55:12 AM 39.4875 -96.2058 360° North 453 521 30,900 -1,537 Descending Kansas City Center
Wed 12:56:12 AM 39.6186 -96.2067 360° North 456 525 29,200 -1,736 Descending Kansas City Center
Wed 12:57:13 AM 39.7628 -96.2064 360° North 456 525 27,400 -1,537 Descending Kansas City Center
Wed 12:58:13 AM 39.8689 -96.2050 North 449 517 26,100 -1,388 Descending Kansas City Center
Wed 12:59:14 AM 39.9869 -96.2061 360° North 426 490 24,600 -1,488 Descending Kansas City Center
Wed 01:00:14 AM 40.0994 -96.2058 360° North 416 479 23,100 -1,450 Descending Kansas City Center
Wed 01:01:14 AM 40.2136 -96.2025 North 415 478 21,700 -1,488 Descending Kansas City Center
Wed 01:02:15 AM 40.3383 -96.1847 North 413 475 20,100 -1,438 Descending Kansas City Center
Wed 01:03:15 AM 40.4417 -96.1697 North 394 453 18,800 -1,714 Descending Kansas City Center
Wed 01:04:35 AM 40.5792 -96.1214 15° North 377 434 16,100 -2,040 Descending Minneapolis Center
Wed 01:04:55 AM 40.6156 -96.0908 33° Northeast 368 423 15,400 -1,967 Descending Minneapolis Center
Wed 01:05:36 AM 40.6767 -96.0758 11° North 372 428 14,100 -1,967 Descending Minneapolis Center
Wed 01:05:56 AM 40.7133 -96.0494 29° Northeast 373 429 13,400 -2,000 Descending Minneapolis Center
Wed 01:06:36 AM 40.7736 -96.0289 14° North 372 428 12,100 -2,066 Descending Minneapolis Center
Wed 01:06:57 AM 40.8147 -96.0022 26° Northeast 355 409 11,300 -1,400 Descending Minneapolis Center
Wed 01:07:36 AM 40.8608 -95.9875 14° North 352 405 10,700 -1,727 Descending Minneapolis Center
Wed 01:08:03 AM 40.9022 -95.9647 23° Northeast 303 349 9,400 -1,967 Descending Minneapolis Center
Wed 01:08:37 AM 40.9406 -95.9506 16° North 328 377 8,700 -1,574 Descending Minneapolis Center
Wed 01:09:04 AM 40.9814 -95.9281 23° Northeast 299 344 7,800 -1,600 Descending Minneapolis Center
Wed 01:09:37 AM 41.0169 -95.9150 15° North 309 356 7,100 -1,574 Descending Minneapolis Center
Wed 01:10:05 AM 41.0544 -95.8947 22° Northeast 282 325 6,200 -1,600 Descending Minneapolis Center
Wed 01:10:37 AM 41.0886 -95.8803 18° North 292 336 5,500 -1,455 Descending Minneapolis Center
Wed 01:11:11 AM 41.1319 -95.8608 19° North 249 287 4,600 -1,300 Descending Minneapolis Center
Wed 01:11:37 AM 41.1525 -95.8489 24° Northeast 269 310 4,200 -1,082 Descending Minneapolis Center
Wed 01:12:12 AM 41.1928 -95.8317 18° North 222 255 3,500 -1,180 Descending Minneapolis Center
Wed 01:12:38 AM 41.2081 -95.8225 24° Northeast 239 275 3,000 -1,100 Descending Minneapolis Center
Wed 01:13:12 AM 41.2369 -95.8347 342° North 154 177 2,400 -800 Descending Minneapolis Center
Wed 01:13:38 AM 41.2467 -95.8431 327° Northwest 186 214 2,200 -787 Descending Minneapolis Center
Wed 01:14:13 AM 41.2706 -95.8697 320° Northwest 133 153 1,600 -800 Descending Minneapolis Center
Wed 01:14:38 AM 41.2786 -95.8731 343° North 157 181 1,400 -419 Descending Minneapolis Center
Wed 01:15:39 AM 41.3089 -95.9022 324° Northwest 142 163 1,000 -393 Descending Minneapolis Center
Wed 01:17:00 AM 41.3032 -95.8941 339° North  Level Estimated

Login

Don't have an account? Register now (free) for customized features, flight alerts, and more!